createdAt,value
2023-02-01T06:44:46.017Z,100782.28
2023-02-01T06:49:48.086Z,100784.59
2023-02-01T06:54:50.084Z,100780.94
2023-02-01T06:59:52.172Z,100784.59
2023-02-01T07:05:27.613Z,100774.78
2023-02-01T07:11:16.319Z,100783.59
2023-02-01T07:16:20.182Z,100788.09
2023-02-01T07:21:36.360Z,100787.09
2023-02-01T07:26:58.465Z,100797.91
2023-02-01T07:32:13.681Z,100817.44
2023-02-01T07:37:16.979Z,100826.28
2023-02-01T07:42:22.073Z,100826.09
2023-02-01T07:47:24.197Z,100844.94
2023-02-01T07:52:30.921Z,100845.13
2023-02-01T07:57:32.893Z,100839.63
2023-02-01T08:02:37.789Z,100835.91
2023-02-01T08:07:39.883Z,100843.94
2023-02-01T08:12:44.046Z,100842.94
2023-02-01T08:18:00.165Z,100845.59
2023-02-01T08:23:07.590Z,100851.75
2023-02-01T08:34:35.694Z,100867.09
2023-02-01T08:56:00.559Z,100891.44
2023-02-01T09:01:28.376Z,100894.41
2023-02-01T09:06:40.785Z,100889.59
2023-02-01T09:12:06.191Z,100897.41
2023-02-01T09:17:09.970Z,100903.94
2023-02-01T09:28:45.686Z,100931.63
2023-02-01T09:33:55.033Z,100945.63
2023-02-01T09:39:07.457Z,100941.47
2023-02-01T09:44:46.839Z,100924.63
2023-02-01T09:50:06.998Z,100926.28
2023-02-01T09:55:26.466Z,100922.91
2023-02-01T10:23:40.130Z,100939.38
2023-02-01T10:28:42.823Z,100927.91
2023-02-01T10:33:50.264Z,100931.38
2023-02-01T10:38:53.551Z,100918.25
2023-02-01T10:49:39.284Z,100899.19
2023-02-01T10:54:41.225Z,100897.34
2023-02-01T10:59:48.788Z,100900.03
2023-02-01T11:04:59.148Z,100890.53
2023-02-01T11:10:06.711Z,100886.88
2023-02-01T11:15:23.961Z,100884.22
2023-02-01T11:20:47.220Z,100890.38
2023-02-01T11:26:27.860Z,100889.19
2023-02-01T11:32:27.667Z,100879.53
2023-02-01T11:43:52.711Z,100869.69
2023-02-01T11:48:54.946Z,100852.00
2023-02-01T11:54:40.198Z,100842.63
2023-02-01T12:06:25.962Z,100841.81
2023-02-01T12:11:59.403Z,100830.97
2023-02-01T12:17:23.368Z,100827.09
2023-02-01T12:28:24.717Z,100823.78
2023-02-01T12:33:38.756Z,100812.72
2023-02-01T12:38:46.011Z,100813.91
2023-02-01T12:44:05.711Z,100805.09
2023-02-01T12:49:36.354Z,100809.06
2023-02-01T12:54:50.548Z,100778.69
2023-02-01T13:00:21.974Z,100772.34
2023-02-01T13:05:36.232Z,100764.69
2023-02-01T13:16:58.754Z,100767.00
2023-02-01T13:22:16.483Z,100771.31
2023-02-01T13:27:18.331Z,100759.34
2023-02-01T13:39:21.799Z,100790.38
2023-02-01T13:44:45.464Z,100778.69
2023-02-01T13:49:56.469Z,100794.22
2023-02-01T14:05:51.821Z,100758.66
2023-02-01T14:10:57.681Z,100765.03
2023-02-01T14:32:57.951Z,100733.47
2023-02-01T14:38:08.939Z,100725.81
2023-02-01T14:43:32.987Z,100720.94
2023-02-01T14:49:16.010Z,100725.97
2023-02-01T14:54:20.943Z,100733.28
2023-02-01T14:59:23.439Z,100738.81
2023-02-01T15:04:29.144Z,100733.66
2023-02-01T15:09:39.911Z,100742.47
2023-02-01T15:14:42.152Z,100756.47
2023-02-01T15:25:36.894Z,100778.47
2023-02-01T15:36:20.858Z,100783.00
2023-02-01T15:41:30.579Z,100791.66
2023-02-01T15:46:40.941Z,100791.00
2023-02-01T15:51:50.530Z,100792.63
2023-02-01T15:57:00.170Z,100800.66
2023-02-01T16:02:05.004Z,100805.00
2023-02-01T16:07:24.918Z,100781.97
2023-02-01T16:12:34.940Z,100789.16
2023-02-01T16:17:39.944Z,100784.09
2023-02-01T16:28:07.900Z,100781.41
2023-02-01T16:38:56.770Z,100772.75
2023-02-01T16:44:28.412Z,100778.31
2023-02-01T16:50:06.137Z,100763.28
2023-02-01T16:55:48.882Z,100763.09
2023-02-01T17:23:21.752Z,100779.94
2023-02-01T17:50:52.586Z,100788.59
2023-02-01T17:56:15.634Z,100804.44
2023-02-01T18:01:45.158Z,100805.25
2023-02-01T18:12:32.298Z,100802.78
2023-02-01T18:23:30.278Z,100807.28
2023-02-01T18:28:47.221Z,100814.63
2023-02-01T18:33:56.679Z,100832.78
2023-02-01T18:39:02.457Z,100826.16
2023-02-01T18:44:13.495Z,100839.63
2023-02-01T18:49:27.703Z,100840.63
2023-02-01T18:54:33.923Z,100850.47
2023-02-01T18:59:45.399Z,100854.63
2023-02-01T19:05:09.660Z,100850.47
2023-02-01T19:10:20.873Z,100848.63
2023-02-01T19:15:30.664Z,100845.13
2023-02-01T19:20:39.373Z,100855.63
2023-02-01T19:25:47.139Z,100844.75
2023-02-01T19:31:18.492Z,100846.97
2023-02-01T19:36:28.567Z,100852.97
2023-02-01T19:41:41.803Z,100847.63
2023-02-01T19:46:46.167Z,100833.25
2023-02-01T19:58:00.000Z,100842.47
2023-02-01T20:03:33.609Z,100863.66
2023-02-01T20:36:42.301Z,100859.47
2023-02-01T20:41:50.071Z,100855.00
2023-02-01T20:47:06.470Z,100863.44
2023-02-01T20:52:16.879Z,100863.66
2023-02-01T20:57:20.917Z,100864.47
2023-02-01T21:02:29.361Z,100866.97
2023-02-01T21:07:37.667Z,100860.78
2023-02-01T21:12:45.726Z,100850.09
2023-02-01T21:17:47.695Z,100849.09
2023-02-01T21:22:49.676Z,100858.75
2023-02-01T21:28:03.924Z,100855.75
2023-02-01T21:33:05.982Z,100856.09
2023-02-01T21:38:07.865Z,100853.63
2023-02-01T21:43:12.610Z,100850.09
2023-02-01T21:48:17.433Z,100845.63
2023-02-01T21:53:19.399Z,100849.94
2023-02-01T21:58:28.430Z,100852.78
2023-02-01T22:03:32.646Z,100872.09
2023-02-01T22:08:40.467Z,100870.47
2023-02-01T22:13:44.990Z,100878.66
2023-02-01T22:24:24.239Z,100890.16
2023-02-01T22:29:53.879Z,100880.50
2023-02-01T22:46:30.552Z,100894.94
2023-02-01T22:51:55.747Z,100898.81
2023-02-01T22:57:21.925Z,100903.31
2023-02-01T23:20:18.750Z,100909.69
2023-02-01T23:25:54.695Z,100909.47
2023-02-01T23:32:29.835Z,100914.66
2023-02-01T23:36:57.994Z,100911.97
2023-02-01T23:42:58.465Z,100905.34
2023-02-01T23:53:36.656Z,100905.16
2023-02-01T23:58:47.668Z,100893.47
